sensor_id;sensor_type;location;lat;lon;timestamp;P1;durP1;ratioP1;P2;durP2;ratioP2
8419;SDS011;4247;48.550;8.822;2024-02-23T00:02:16;0.30;;;0.20;;
8419;SDS011;4247;48.550;8.822;2024-02-23T00:04:43;0.10;;;0.10;;
8419;SDS011;4247;48.550;8.822;2024-02-23T00:07:10;1.30;;;0.17;;
8419;SDS011;4247;48.550;8.822;2024-02-23T00:09:36;0.30;;;0.30;;
8419;SDS011;4247;48.550;8.822;2024-02-23T00:12:05;0.40;;;0.27;;
8419;SDS011;4247;48.550;8.822;2024-02-23T00:14:33;0.13;;;0.00;;
8419;SDS011;4247;48.550;8.822;2024-02-23T00:17:01;0.50;;;0.17;;
8419;SDS011;4247;48.550;8.822;2024-02-23T00:19:29;0.03;;;0.03;;
8419;SDS011;4247;48.550;8.822;2024-02-23T00:21:56;1.20;;;0.20;;
8419;SDS011;4247;48.550;8.822;2024-02-23T00:24:24;1.07;;;0.20;;
8419;SDS011;4247;48.550;8.822;2024-02-23T00:26:51;0.10;;;0.10;;
8419;SDS011;4247;48.550;8.822;2024-02-23T00:29:19;0.10;;;0.10;;
8419;SDS011;4247;48.550;8.822;2024-02-23T00:31:46;0.33;;;0.10;;
8419;SDS011;4247;48.550;8.822;2024-02-23T00:34:13;0.10;;;0.10;;
8419;SDS011;4247;48.550;8.822;2024-02-23T00:36:40;0.20;;;0.20;;
8419;SDS011;4247;48.550;8.822;2024-02-23T00:39:09;0.23;;;0.10;;
8419;SDS011;4247;48.550;8.822;2024-02-23T00:41:37;2.30;;;0.20;;
8419;SDS011;4247;48.550;8.822;2024-02-23T00:44:04;0.63;;;0.30;;
8419;SDS011;4247;48.550;8.822;2024-02-23T00:46:32;2.57;;;0.10;;
8419;SDS011;4247;48.550;8.822;2024-02-23T00:48:59;0.53;;;0.20;;
8419;SDS011;4247;48.550;8.822;2024-02-23T00:51:25;1.30;;;0.10;;
8419;SDS011;4247;48.550;8.822;2024-02-23T00:53:52;0.13;;;0.10;;
8419;SDS011;4247;48.550;8.822;2024-02-23T00:56:19;0.90;;;0.13;;
8419;SDS011;4247;48.550;8.822;2024-02-23T00:58:45;2.37;;;0.20;;
8419;SDS011;4247;48.550;8.822;2024-02-23T01:01:12;2.13;;;0.20;;
8419;SDS011;4247;48.550;8.822;2024-02-23T01:03:40;0.20;;;0.20;;
8419;SDS011;4247;48.550;8.822;2024-02-23T01:06:07;0.10;;;0.10;;
8419;SDS011;4247;48.550;8.822;2024-02-23T01:08:34;1.20;;;0.10;;
8419;SDS011;4247;48.550;8.822;2024-02-23T01:11:00;0.10;;;0.10;;
8419;SDS011;4247;48.550;8.822;2024-02-23T01:13:27;3.37;;;0.10;;
8419;SDS011;4247;48.550;8.822;2024-02-23T01:15:54;2.27;;;0.30;;
8419;SDS011;4247;48.550;8.822;2024-02-23T01:18:20;0.20;;;0.10;;
8419;SDS011;4247;48.550;8.822;2024-02-23T01:20:48;3.37;;;0.20;;
8419;SDS011;4247;48.550;8.822;2024-02-23T01:23:14;1.07;;;0.30;;
8419;SDS011;4247;48.550;8.822;2024-02-23T01:25:41;0.47;;;0.37;;
8419;SDS011;4247;48.550;8.822;2024-02-23T01:28:08;3.43;;;0.53;;
8419;SDS011;4247;48.550;8.822;2024-02-23T01:30:34;1.40;;;0.40;;
8419;SDS011;4247;48.550;8.822;2024-02-23T01:33:01;1.07;;;0.30;;
8419;SDS011;4247;48.550;8.822;2024-02-23T01:35:28;0.63;;;0.30;;
8419;SDS011;4247;48.550;8.822;2024-02-23T01:37:56;0.40;;;0.40;;
8419;SDS011;4247;48.550;8.822;2024-02-23T01:40:23;0.80;;;0.60;;
8419;SDS011;4247;48.550;8.822;2024-02-23T01:42:59;3.63;;;0.40;;
8419;SDS011;4247;48.550;8.822;2024-02-23T01:45:27;0.90;;;0.40;;
8419;SDS011;4247;48.550;8.822;2024-02-23T01:47:53;0.07;;;0.07;;
8419;SDS011;4247;48.550;8.822;2024-02-23T01:50:21;0.63;;;0.20;;
8419;SDS011;4247;48.550;8.822;2024-02-23T01:52:47;0.10;;;0.10;;
8419;SDS011;4247;48.550;8.822;2024-02-23T01:55:18;1.80;;;0.27;;
8419;SDS011;4247;48.550;8.822;2024-02-23T01:57:46;1.07;;;0.20;;
8419;SDS011;4247;48.550;8.822;2024-02-23T02:00:15;0.20;;;0.20;;
8419;SDS011;4247;48.550;8.822;2024-02-23T02:02:43;3.63;;;0.20;;
8419;SDS011;4247;48.550;8.822;2024-02-23T02:05:10;2.60;;;0.23;;
8419;SDS011;4247;48.550;8.822;2024-02-23T02:07:37;0.20;;;0.20;;
8419;SDS011;4247;48.550;8.822;2024-02-23T02:10:06;0.10;;;0.10;;
8419;SDS011;4247;48.550;8.822;2024-02-23T02:12:35;2.00;;;0.30;;
8419;SDS011;4247;48.550;8.822;2024-02-23T02:15:03;0.93;;;0.10;;
8419;SDS011;4247;48.550;8.822;2024-02-23T02:17:30;1.23;;;0.20;;
8419;SDS011;4247;48.550;8.822;2024-02-23T02:19:57;1.60;;;0.20;;
8419;SDS011;4247;48.550;8.822;2024-02-23T02:22:25;0.47;;;0.13;;
8419;SDS011;4247;48.550;8.822;2024-02-23T02:24:51;1.33;;;0.20;;
8419;SDS011;4247;48.550;8.822;2024-02-23T02:27:18;0.30;;;0.13;;
8419;SDS011;4247;48.550;8.822;2024-02-23T02:29:46;0.60;;;0.10;;
8419;SDS011;4247;48.550;8.822;2024-02-23T02:32:16;0.60;;;0.10;;
8419;SDS011;4247;48.550;8.822;2024-02-23T02:34:43;0.63;;;0.20;;
8419;SDS011;4247;48.550;8.822;2024-02-23T02:37:09;0.20;;;0.20;;
8419;SDS011;4247;48.550;8.822;2024-02-23T02:39:36;2.87;;;0.10;;
8419;SDS011;4247;48.550;8.822;2024-02-23T02:42:03;0.10;;;0.10;;
8419;SDS011;4247;48.550;8.822;2024-02-23T02:44:30;0.57;;;0.03;;
8419;SDS011;4247;48.550;8.822;2024-02-23T02:46:58;1.23;;;0.23;;
8419;SDS011;4247;48.550;8.822;2024-02-23T02:49:25;0.60;;;0.13;;
8419;SDS011;4247;48.550;8.822;2024-02-23T02:51:51;2.57;;;0.40;;
8419;SDS011;4247;48.550;8.822;2024-02-23T02:54:18;0.20;;;0.17;;
8419;SDS011;4247;48.550;8.822;2024-02-23T02:56:45;0.50;;;0.20;;
8419;SDS011;4247;48.550;8.822;2024-02-23T02:59:13;1.03;;;0.17;;
8419;SDS011;4247;48.550;8.822;2024-02-23T03:01:39;0.03;;;0.03;;
8419;SDS011;4247;48.550;8.822;2024-02-23T03:04:07;0.10;;;0.10;;
8419;SDS011;4247;48.550;8.822;2024-02-23T03:06:34;0.47;;;0.10;;
8419;SDS011;4247;48.550;8.822;2024-02-23T03:09:01;0.83;;;0.20;;
8419;SDS011;4247;48.550;8.822;2024-02-23T03:11:28;0.70;;;0.20;;
8419;SDS011;4247;48.550;8.822;2024-02-23T03:13:54;0.63;;;0.10;;
8419;SDS011;4247;48.550;8.822;2024-02-23T03:16:21;0.10;;;0.10;;
8419;SDS011;4247;48.550;8.822;2024-02-23T03:18:51;0.70;;;0.20;;
8419;SDS011;4247;48.550;8.822;2024-02-23T03:21:20;0.63;;;0.10;;
8419;SDS011;4247;48.550;8.822;2024-02-23T03:23:47;0.10;;;0.10;;
8419;SDS011;4247;48.550;8.822;2024-02-23T03:26:13;0.27;;;0.20;;
8419;SDS011;4247;48.550;8.822;2024-02-23T03:28:42;0.67;;;0.40;;
8419;SDS011;4247;48.550;8.822;2024-02-23T03:31:08;0.07;;;0.03;;
8419;SDS011;4247;48.550;8.822;2024-02-23T03:33:35;0.70;;;0.70;;
8419;SDS011;4247;48.550;8.822;2024-02-23T03:36:02;0.10;;;0.10;;
8419;SDS011;4247;48.550;8.822;2024-02-23T03:38:31;1.23;;;0.20;;
8419;SDS011;4247;48.550;8.822;2024-02-23T03:40:58;0.20;;;0.10;;
8419;SDS011;4247;48.550;8.822;2024-02-23T03:43:25;1.07;;;0.30;;
8419;SDS011;4247;48.550;8.822;2024-02-23T03:45:52;2.10;;;0.30;;
8419;SDS011;4247;48.550;8.822;2024-02-23T03:48:19;1.60;;;0.20;;
8419;SDS011;4247;48.550;8.822;2024-02-23T03:50:45;0.10;;;0.10;;
8419;SDS011;4247;48.550;8.822;2024-02-23T03:53:12;0.67;;;0.10;;
8419;SDS011;4247;48.550;8.822;2024-02-23T03:55:40;0.17;;;0.17;;
8419;SDS011;4247;48.550;8.822;2024-02-23T03:58:07;1.60;;;0.20;;
8419;SDS011;4247;48.550;8.822;2024-02-23T04:00:34;2.33;;;0.50;;
8419;SDS011;4247;48.550;8.822;2024-02-23T04:03:00;1.20;;;0.10;;
8419;SDS011;4247;48.550;8.822;2024-02-23T04:05:27;0.10;;;0.10;;
8419;SDS011;4247;48.550;8.822;2024-02-23T04:07:53;0.30;;;0.30;;
8419;SDS011;4247;48.550;8.822;2024-02-23T04:10:20;0.60;;;0.13;;
8419;SDS011;4247;48.550;8.822;2024-02-23T04:12:48;3.50;;;0.30;;
8419;SDS011;4247;48.550;8.822;2024-02-23T04:15:15;0.00;;;0.00;;
8419;SDS011;4247;48.550;8.822;2024-02-23T04:17:42;2.20;;;0.13;;
8419;SDS011;4247;48.550;8.822;2024-02-23T04:20:09;0.53;;;0.10;;
8419;SDS011;4247;48.550;8.822;2024-02-23T04:22:36;2.10;;;0.10;;
8419;SDS011;4247;48.550;8.822;2024-02-23T04:25:03;0.23;;;0.20;;
8419;SDS011;4247;48.550;8.822;2024-02-23T04:27:31;3.20;;;0.20;;
8419;SDS011;4247;48.550;8.822;2024-02-23T04:29:59;0.20;;;0.20;;
8419;SDS011;4247;48.550;8.822;2024-02-23T04:32:26;0.10;;;0.10;;
8419;SDS011;4247;48.550;8.822;2024-02-23T04:34:52;0.20;;;0.10;;
8419;SDS011;4247;48.550;8.822;2024-02-23T04:37:19;4.23;;;0.30;;
8419;SDS011;4247;48.550;8.822;2024-02-23T04:39:46;0.10;;;0.10;;
8419;SDS011;4247;48.550;8.822;2024-02-23T04:42:12;0.67;;;0.10;;
8419;SDS011;4247;48.550;8.822;2024-02-23T04:44:40;8.73;;;0.57;;
8419;SDS011;4247;48.550;8.822;2024-02-23T04:47:08;1.33;;;0.20;;
8419;SDS011;4247;48.550;8.822;2024-02-23T04:49:35;0.10;;;0.10;;
8419;SDS011;4247;48.550;8.822;2024-02-23T04:52:02;0.50;;;0.20;;
8419;SDS011;4247;48.550;8.822;2024-02-23T04:54:31;0.10;;;0.10;;
8419;SDS011;4247;48.550;8.822;2024-02-23T04:56:57;0.20;;;0.20;;
8419;SDS011;4247;48.550;8.822;2024-02-23T04:59:24;1.47;;;0.30;;
8419;SDS011;4247;48.550;8.822;2024-02-23T05:01:51;2.03;;;0.20;;
8419;SDS011;4247;48.550;8.822;2024-02-23T05:04:19;0.40;;;0.27;;
8419;SDS011;4247;48.550;8.822;2024-02-23T05:06:45;1.23;;;0.30;;
8419;SDS011;4247;48.550;8.822;2024-02-23T05:09:12;1.90;;;0.10;;
8419;SDS011;4247;48.550;8.822;2024-02-23T05:11:39;0.30;;;0.30;;
8419;SDS011;4247;48.550;8.822;2024-02-23T05:14:06;1.37;;;0.20;;
8419;SDS011;4247;48.550;8.822;2024-02-23T05:16:33;1.27;;;0.23;;
8419;SDS011;4247;48.550;8.822;2024-02-23T05:19:00;0.63;;;0.23;;
8419;SDS011;4247;48.550;8.822;2024-02-23T05:21:29;0.50;;;0.10;;
8419;SDS011;4247;48.550;8.822;2024-02-23T05:23:56;0.87;;;0.20;;
8419;SDS011;4247;48.550;8.822;2024-02-23T05:26:23;0.30;;;0.30;;
8419;SDS011;4247;48.550;8.822;2024-02-23T05:28:49;0.63;;;0.23;;
8419;SDS011;4247;48.550;8.822;2024-02-23T05:31:17;1.03;;;0.30;;
8419;SDS011;4247;48.550;8.822;2024-02-23T05:33:45;4.03;;;0.50;;
8419;SDS011;4247;48.550;8.822;2024-02-23T05:36:11;2.73;;;0.40;;
8419;SDS011;4247;48.550;8.822;2024-02-23T05:38:39;6.57;;;1.50;;
8419;SDS011;4247;48.550;8.822;2024-02-23T05:41:06;4.40;;;0.80;;
8419;SDS011;4247;48.550;8.822;2024-02-23T05:43:38;1.70;;;1.37;;
8419;SDS011;4247;48.550;8.822;2024-02-23T05:46:05;3.50;;;0.97;;
8419;SDS011;4247;48.550;8.822;2024-02-23T05:48:31;2.17;;;1.03;;
8419;SDS011;4247;48.550;8.822;2024-02-23T05:50:58;4.03;;;1.40;;
8419;SDS011;4247;48.550;8.822;2024-02-23T05:53:25;1.17;;;0.90;;
8419;SDS011;4247;48.550;8.822;2024-02-23T05:55:57;2.50;;;1.00;;
8419;SDS011;4247;48.550;8.822;2024-02-23T05:58:24;4.20;;;1.40;;
8419;SDS011;4247;48.550;8.822;2024-02-23T06:00:50;3.10;;;0.70;;
8419;SDS011;4247;48.550;8.822;2024-02-23T06:03:18;0.97;;;0.70;;
8419;SDS011;4247;48.550;8.822;2024-02-23T06:05:45;0.80;;;0.80;;
8419;SDS011;4247;48.550;8.822;2024-02-23T06:08:12;0.97;;;0.80;;
8419;SDS011;4247;48.550;8.822;2024-02-23T06:10:39;1.83;;;0.80;;
8419;SDS011;4247;48.550;8.822;2024-02-23T06:13:09;2.17;;;0.70;;
8419;SDS011;4247;48.550;8.822;2024-02-23T06:15:36;0.43;;;0.40;;
8419;SDS011;4247;48.550;8.822;2024-02-23T06:18:03;3.80;;;0.60;;
8419;SDS011;4247;48.550;8.822;2024-02-23T06:20:30;1.97;;;0.80;;
8419;SDS011;4247;48.550;8.822;2024-02-23T06:22:57;1.90;;;0.40;;
8419;SDS011;4247;48.550;8.822;2024-02-23T06:25:24;1.70;;;0.40;;
8419;SDS011;4247;48.550;8.822;2024-02-23T06:27:51;2.50;;;0.53;;
8419;SDS011;4247;48.550;8.822;2024-02-23T06:30:19;3.93;;;0.70;;
8419;SDS011;4247;48.550;8.822;2024-02-23T06:32:45;0.37;;;0.30;;
8419;SDS011;4247;48.550;8.822;2024-02-23T06:35:12;0.30;;;0.30;;
8419;SDS011;4247;48.550;8.822;2024-02-23T06:37:39;1.53;;;0.30;;
8419;SDS011;4247;48.550;8.822;2024-02-23T06:40:06;0.30;;;0.30;;
8419;SDS011;4247;48.550;8.822;2024-02-23T06:42:33;1.20;;;0.40;;
8419;SDS011;4247;48.550;8.822;2024-02-23T06:45:00;1.20;;;0.30;;
8419;SDS011;4247;48.550;8.822;2024-02-23T06:47:28;0.97;;;0.50;;
8419;SDS011;4247;48.550;8.822;2024-02-23T06:49:55;0.30;;;0.30;;
8419;SDS011;4247;48.550;8.822;2024-02-23T06:52:21;0.40;;;0.40;;
8419;SDS011;4247;48.550;8.822;2024-02-23T06:54:51;0.60;;;0.30;;
8419;SDS011;4247;48.550;8.822;2024-02-23T06:57:17;2.23;;;0.30;;
8419;SDS011;4247;48.550;8.822;2024-02-23T06:59:44;1.33;;;0.93;;
8419;SDS011;4247;48.550;8.822;2024-02-23T07:02:11;5.47;;;3.17;;
8419;SDS011;4247;48.550;8.822;2024-02-23T07:04:39;3.57;;;1.43;;
8419;SDS011;4247;48.550;8.822;2024-02-23T07:07:05;1.63;;;1.17;;
8419;SDS011;4247;48.550;8.822;2024-02-23T07:09:33;1.33;;;0.97;;
8419;SDS011;4247;48.550;8.822;2024-02-23T07:12:00;2.27;;;1.20;;
8419;SDS011;4247;48.550;8.822;2024-02-23T07:14:27;4.07;;;2.57;;
8419;SDS011;4247;48.550;8.822;2024-02-23T07:16:53;1.20;;;0.80;;
8419;SDS011;4247;48.550;8.822;2024-02-23T07:19:20;2.27;;;0.60;;
8419;SDS011;4247;48.550;8.822;2024-02-23T07:21:48;0.30;;;0.30;;
8419;SDS011;4247;48.550;8.822;2024-02-23T07:24:15;2.13;;;0.77;;
8419;SDS011;4247;48.550;8.822;2024-02-23T07:26:42;1.00;;;0.50;;
8419;SDS011;4247;48.550;8.822;2024-02-23T07:29:09;2.23;;;1.00;;
8419;SDS011;4247;48.550;8.822;2024-02-23T07:31:36;3.00;;;0.60;;
8419;SDS011;4247;48.550;8.822;2024-02-23T07:34:02;3.93;;;0.60;;
8419;SDS011;4247;48.550;8.822;2024-02-23T07:36:29;6.80;;;2.50;;
8419;SDS011;4247;48.550;8.822;2024-02-23T07:38:57;6.60;;;1.80;;
8419;SDS011;4247;48.550;8.822;2024-02-23T07:41:23;4.50;;;1.40;;
8419;SDS011;4247;48.550;8.822;2024-02-23T07:43:50;1.43;;;0.97;;
8419;SDS011;4247;48.550;8.822;2024-02-23T07:46:17;7.17;;;2.60;;
8419;SDS011;4247;48.550;8.822;2024-02-23T07:48:44;9.13;;;3.90;;
8419;SDS011;4247;48.550;8.822;2024-02-23T07:51:13;5.10;;;1.60;;
8419;SDS011;4247;48.550;8.822;2024-02-23T07:53:40;5.53;;;1.90;;
8419;SDS011;4247;48.550;8.822;2024-02-23T07:56:08;4.17;;;1.60;;
8419;SDS011;4247;48.550;8.822;2024-02-23T07:58:35;8.30;;;3.13;;
8419;SDS011;4247;48.550;8.822;2024-02-23T08:01:01;10.77;;;3.03;;
8419;SDS011;4247;48.550;8.822;2024-02-23T08:03:29;6.03;;;2.63;;
8419;SDS011;4247;48.550;8.822;2024-02-23T08:05:56;2.53;;;1.00;;
8419;SDS011;4247;48.550;8.822;2024-02-23T08:08:23;3.57;;;1.30;;
8419;SDS011;4247;48.550;8.822;2024-02-23T08:10:52;1.70;;;0.40;;
8419;SDS011;4247;48.550;8.822;2024-02-23T08:13:20;3.47;;;1.33;;
8419;SDS011;4247;48.550;8.822;2024-02-23T08:15:46;4.57;;;2.10;;
8419;SDS011;4247;48.550;8.822;2024-02-23T08:18:13;4.43;;;1.73;;
8419;SDS011;4247;48.550;8.822;2024-02-23T08:20:40;4.63;;;1.13;;
8419;SDS011;4247;48.550;8.822;2024-02-23T08:23:06;6.37;;;1.00;;
8419;SDS011;4247;48.550;8.822;2024-02-23T08:25:34;5.93;;;1.10;;
8419;SDS011;4247;48.550;8.822;2024-02-23T08:28:00;2.37;;;0.60;;
8419;SDS011;4247;48.550;8.822;2024-02-23T08:30:29;4.93;;;1.07;;
8419;SDS011;4247;48.550;8.822;2024-02-23T08:32:56;3.47;;;0.73;;
8419;SDS011;4247;48.550;8.822;2024-02-23T08:35:23;6.10;;;0.50;;
8419;SDS011;4247;48.550;8.822;2024-02-23T08:37:50;4.70;;;3.03;;
8419;SDS011;4247;48.550;8.822;2024-02-23T08:40:17;4.07;;;0.77;;
8419;SDS011;4247;48.550;8.822;2024-02-23T08:42:44;3.20;;;1.83;;
8419;SDS011;4247;48.550;8.822;2024-02-23T08:45:12;2.87;;;1.27;;
8419;SDS011;4247;48.550;8.822;2024-02-23T08:47:41;3.83;;;1.67;;
8419;SDS011;4247;48.550;8.822;2024-02-23T08:50:08;3.33;;;1.37;;
8419;SDS011;4247;48.550;8.822;2024-02-23T08:52:35;2.60;;;1.93;;
8419;SDS011;4247;48.550;8.822;2024-02-23T08:55:02;3.03;;;1.33;;
8419;SDS011;4247;48.550;8.822;2024-02-23T08:57:29;0.97;;;0.40;;
8419;SDS011;4247;48.550;8.822;2024-02-23T08:59:56;3.43;;;1.10;;
8419;SDS011;4247;48.550;8.822;2024-02-23T09:02:23;3.77;;;1.20;;
8419;SDS011;4247;48.550;8.822;2024-02-23T09:04:51;9.43;;;0.77;;
8419;SDS011;4247;48.550;8.822;2024-02-23T09:07:17;4.83;;;0.50;;
8419;SDS011;4247;48.550;8.822;2024-02-23T09:09:46;3.37;;;1.30;;
8419;SDS011;4247;48.550;8.822;2024-02-23T09:12:13;3.87;;;0.60;;
8419;SDS011;4247;48.550;8.822;2024-02-23T09:14:41;2.13;;;0.40;;
8419;SDS011;4247;48.550;8.822;2024-02-23T09:17:08;3.23;;;0.63;;
8419;SDS011;4247;48.550;8.822;2024-02-23T09:19:35;2.77;;;0.30;;
8419;SDS011;4247;48.550;8.822;2024-02-23T09:22:04;2.20;;;0.70;;
8419;SDS011;4247;48.550;8.822;2024-02-23T09:24:30;8.17;;;0.47;;
8419;SDS011;4247;48.550;8.822;2024-02-23T09:26:57;0.60;;;0.50;;
8419;SDS011;4247;48.550;8.822;2024-02-23T09:29:24;2.10;;;0.70;;
8419;SDS011;4247;48.550;8.822;2024-02-23T09:31:51;2.23;;;0.40;;
8419;SDS011;4247;48.550;8.822;2024-02-23T09:34:18;1.40;;;0.30;;
8419;SDS011;4247;48.550;8.822;2024-02-23T09:36:44;1.23;;;0.60;;
8419;SDS011;4247;48.550;8.822;2024-02-23T09:39:12;9.00;;;0.53;;
8419;SDS011;4247;48.550;8.822;2024-02-23T09:41:39;1.60;;;0.40;;
8419;SDS011;4247;48.550;8.822;2024-02-23T09:44:06;3.00;;;0.50;;
8419;SDS011;4247;48.550;8.822;2024-02-23T09:46:36;1.87;;;0.50;;
8419;SDS011;4247;48.550;8.822;2024-02-23T09:49:03;0.40;;;0.30;;
8419;SDS011;4247;48.550;8.822;2024-02-23T09:51:33;3.83;;;0.70;;
8419;SDS011;4247;48.550;8.822;2024-02-23T09:54:01;9.83;;;0.70;;
8419;SDS011;4247;48.550;8.822;2024-02-23T09:56:30;4.17;;;1.03;;
8419;SDS011;4247;48.550;8.822;2024-02-23T09:58:59;3.83;;;0.83;;
8419;SDS011;4247;48.550;8.822;2024-02-23T10:01:28;1.00;;;0.87;;
8419;SDS011;4247;48.550;8.822;2024-02-23T10:03:57;1.10;;;0.80;;
8419;SDS011;4247;48.550;8.822;2024-02-23T10:06:24;4.10;;;0.80;;
8419;SDS011;4247;48.550;8.822;2024-02-23T10:08:51;1.93;;;0.60;;
8419;SDS011;4247;48.550;8.822;2024-02-23T10:11:19;1.43;;;0.80;;
8419;SDS011;4247;48.550;8.822;2024-02-23T10:13:48;1.00;;;0.40;;
8419;SDS011;4247;48.550;8.822;2024-02-23T10:16:16;2.83;;;0.30;;
8419;SDS011;4247;48.550;8.822;2024-02-23T10:18:45;3.30;;;0.40;;
8419;SDS011;4247;48.550;8.822;2024-02-23T10:21:13;1.30;;;0.30;;
8419;SDS011;4247;48.550;8.822;2024-02-23T10:23:40;2.80;;;0.50;;
8419;SDS011;4247;48.550;8.822;2024-02-23T10:26:07;1.93;;;0.40;;
8419;SDS011;4247;48.550;8.822;2024-02-23T10:28:34;1.03;;;0.50;;
8419;SDS011;4247;48.550;8.822;2024-02-23T10:31:02;0.40;;;0.40;;
8419;SDS011;4247;48.550;8.822;2024-02-23T10:33:29;2.20;;;0.20;;
8419;SDS011;4247;48.550;8.822;2024-02-23T10:35:57;2.73;;;0.40;;
8419;SDS011;4247;48.550;8.822;2024-02-23T10:38:25;2.37;;;0.43;;
8419;SDS011;4247;48.550;8.822;2024-02-23T10:40:53;5.03;;;0.63;;
8419;SDS011;4247;48.550;8.822;2024-02-23T10:43:21;0.97;;;0.30;;
8419;SDS011;4247;48.550;8.822;2024-02-23T10:45:55;0.40;;;0.30;;
8419;SDS011;4247;48.550;8.822;2024-02-23T10:48:25;2.17;;;0.33;;
8419;SDS011;4247;48.550;8.822;2024-02-23T10:50:54;3.80;;;0.50;;
8419;SDS011;4247;48.550;8.822;2024-02-23T10:53:21;8.90;;;0.40;;
8419;SDS011;4247;48.550;8.822;2024-02-23T10:55:50;4.20;;;0.37;;
8419;SDS011;4247;48.550;8.822;2024-02-23T10:58:22;1.00;;;0.50;;
8419;SDS011;4247;48.550;8.822;2024-02-23T11:00:48;2.53;;;0.67;;
8419;SDS011;4247;48.550;8.822;2024-02-23T11:03:15;2.17;;;0.37;;
8419;SDS011;4247;48.550;8.822;2024-02-23T11:05:44;8.30;;;0.50;;
8419;SDS011;4247;48.550;8.822;2024-02-23T11:08:13;4.13;;;0.60;;
8419;SDS011;4247;48.550;8.822;2024-02-23T11:10:43;4.03;;;0.43;;
8419;SDS011;4247;48.550;8.822;2024-02-23T11:13:15;4.50;;;0.60;;
8419;SDS011;4247;48.550;8.822;2024-02-23T11:15:42;2.33;;;0.47;;
8419;SDS011;4247;48.550;8.822;2024-02-23T11:18:20;2.83;;;0.90;;
8419;SDS011;4247;48.550;8.822;2024-02-23T11:20:54;3.50;;;0.77;;
8419;SDS011;4247;48.550;8.822;2024-02-23T11:23:22;5.73;;;1.33;;
8419;SDS011;4247;48.550;8.822;2024-02-23T11:25:59;1.23;;;0.33;;
8419;SDS011;4247;48.550;8.822;2024-02-23T11:28:30;4.67;;;0.70;;
8419;SDS011;4247;48.550;8.822;2024-02-23T11:30:57;6.07;;;0.77;;
8419;SDS011;4247;48.550;8.822;2024-02-23T11:33:27;2.10;;;0.37;;
8419;SDS011;4247;48.550;8.822;2024-02-23T11:36:05;1.33;;;0.40;;
8419;SDS011;4247;48.550;8.822;2024-02-23T11:38:33;3.57;;;0.90;;
8419;SDS011;4247;48.550;8.822;2024-02-23T11:41:00;1.57;;;0.70;;
8419;SDS011;4247;48.550;8.822;2024-02-23T11:43:27;2.90;;;0.47;;
8419;SDS011;4247;48.550;8.822;2024-02-23T11:45:54;2.07;;;0.50;;
8419;SDS011;4247;48.550;8.822;2024-02-23T11:48:21;4.87;;;0.70;;
8419;SDS011;4247;48.550;8.822;2024-02-23T11:50:48;5.20;;;0.63;;
8419;SDS011;4247;48.550;8.822;2024-02-23T11:53:16;8.60;;;0.60;;
8419;SDS011;4247;48.550;8.822;2024-02-23T11:55:44;4.20;;;0.60;;
8419;SDS011;4247;48.550;8.822;2024-02-23T11:58:11;10.50;;;0.87;;
8419;SDS011;4247;48.550;8.822;2024-02-23T12:00:39;4.03;;;0.80;;
8419;SDS011;4247;48.550;8.822;2024-02-23T12:03:06;3.63;;;1.47;;
8419;SDS011;4247;48.550;8.822;2024-02-23T12:05:33;9.23;;;0.60;;
8419;SDS011;4247;48.550;8.822;2024-02-23T12:07:59;1.83;;;0.50;;
8419;SDS011;4247;48.550;8.822;2024-02-23T12:10:28;1.63;;;0.70;;
8419;SDS011;4247;48.550;8.822;2024-02-23T12:12:55;1.40;;;0.50;;
8419;SDS011;4247;48.550;8.822;2024-02-23T12:15:22;2.00;;;0.43;;
8419;SDS011;4247;48.550;8.822;2024-02-23T12:17:48;3.50;;;1.50;;
8419;SDS011;4247;48.550;8.822;2024-02-23T12:20:16;6.07;;;1.00;;
8419;SDS011;4247;48.550;8.822;2024-02-23T12:22:42;3.07;;;0.40;;
8419;SDS011;4247;48.550;8.822;2024-02-23T12:25:09;2.93;;;0.30;;
8419;SDS011;4247;48.550;8.822;2024-02-23T12:27:39;4.13;;;0.40;;
8419;SDS011;4247;48.550;8.822;2024-02-23T12:30:12;6.63;;;0.50;;
8419;SDS011;4247;48.550;8.822;2024-02-23T12:32:39;6.20;;;1.00;;
8419;SDS011;4247;48.550;8.822;2024-02-23T12:35:06;3.07;;;0.40;;
8419;SDS011;4247;48.550;8.822;2024-02-23T12:37:34;3.80;;;0.40;;
8419;SDS011;4247;48.550;8.822;2024-02-23T12:40:01;4.77;;;0.60;;
8419;SDS011;4247;48.550;8.822;2024-02-23T12:42:28;4.90;;;0.40;;
8419;SDS011;4247;48.550;8.822;2024-02-23T12:44:56;2.20;;;0.47;;
8419;SDS011;4247;48.550;8.822;2024-02-23T12:47:23;4.60;;;0.43;;
8419;SDS011;4247;48.550;8.822;2024-02-23T12:49:50;4.00;;;0.50;;
8419;SDS011;4247;48.550;8.822;2024-02-23T12:52:16;2.20;;;0.57;;
8419;SDS011;4247;48.550;8.822;2024-02-23T12:54:43;3.57;;;0.50;;
8419;SDS011;4247;48.550;8.822;2024-02-23T12:57:10;1.10;;;0.23;;
8419;SDS011;4247;48.550;8.822;2024-02-23T12:59:37;6.27;;;1.13;;
8419;SDS011;4247;48.550;8.822;2024-02-23T13:02:05;5.10;;;2.77;;
8419;SDS011;4247;48.550;8.822;2024-02-23T13:04:34;7.13;;;0.60;;
8419;SDS011;4247;48.550;8.822;2024-02-23T13:07:00;7.70;;;0.87;;
8419;SDS011;4247;48.550;8.822;2024-02-23T13:09:27;1.23;;;0.40;;
8419;SDS011;4247;48.550;8.822;2024-02-23T13:11:54;2.73;;;0.50;;
8419;SDS011;4247;48.550;8.822;2024-02-23T13:14:21;1.73;;;0.33;;
8419;SDS011;4247;48.550;8.822;2024-02-23T13:16:47;3.80;;;0.60;;
8419;SDS011;4247;48.550;8.822;2024-02-23T13:19:15;4.70;;;0.50;;
8419;SDS011;4247;48.550;8.822;2024-02-23T13:21:42;5.43;;;0.57;;
8419;SDS011;4247;48.550;8.822;2024-02-23T13:24:08;3.77;;;0.30;;
8419;SDS011;4247;48.550;8.822;2024-02-23T13:26:35;5.87;;;1.03;;
8419;SDS011;4247;48.550;8.822;2024-02-23T13:29:02;3.40;;;0.50;;
8419;SDS011;4247;48.550;8.822;2024-02-23T13:31:29;3.60;;;0.40;;
8419;SDS011;4247;48.550;8.822;2024-02-23T13:33:55;3.60;;;0.50;;
8419;SDS011;4247;48.550;8.822;2024-02-23T13:36:23;1.07;;;0.40;;
8419;SDS011;4247;48.550;8.822;2024-02-23T13:38:50;1.67;;;0.30;;
8419;SDS011;4247;48.550;8.822;2024-02-23T13:41:17;3.83;;;1.00;;
8419;SDS011;4247;48.550;8.822;2024-02-23T13:43:43;6.43;;;0.83;;
8419;SDS011;4247;48.550;8.822;2024-02-23T13:46:10;0.80;;;0.60;;
8419;SDS011;4247;48.550;8.822;2024-02-23T13:48:37;3.03;;;0.67;;
8419;SDS011;4247;48.550;8.822;2024-02-23T13:51:03;2.53;;;0.70;;
8419;SDS011;4247;48.550;8.822;2024-02-23T13:53:32;4.93;;;0.70;;
8419;SDS011;4247;48.550;8.822;2024-02-23T13:56:01;3.30;;;0.50;;
8419;SDS011;4247;48.550;8.822;2024-02-23T13:58:28;2.30;;;0.40;;
8419;SDS011;4247;48.550;8.822;2024-02-23T14:00:55;2.47;;;0.70;;
8419;SDS011;4247;48.550;8.822;2024-02-23T14:03:22;4.33;;;0.60;;
8419;SDS011;4247;48.550;8.822;2024-02-23T14:05:49;2.93;;;0.50;;
8419;SDS011;4247;48.550;8.822;2024-02-23T14:08:16;8.80;;;0.60;;
8419;SDS011;4247;48.550;8.822;2024-02-23T14:10:44;4.27;;;0.47;;
8419;SDS011;4247;48.550;8.822;2024-02-23T14:13:11;3.53;;;0.57;;
8419;SDS011;4247;48.550;8.822;2024-02-23T14:15:38;1.37;;;0.60;;
8419;SDS011;4247;48.550;8.822;2024-02-23T14:18:05;0.80;;;0.30;;
8419;SDS011;4247;48.550;8.822;2024-02-23T14:20:32;4.57;;;0.60;;
8419;SDS011;4247;48.550;8.822;2024-02-23T14:22:59;1.17;;;0.87;;
8419;SDS011;4247;48.550;8.822;2024-02-23T14:25:25;8.43;;;0.80;;
8419;SDS011;4247;48.550;8.822;2024-02-23T14:27:53;5.33;;;0.40;;
8419;SDS011;4247;48.550;8.822;2024-02-23T14:30:21;3.23;;;0.50;;
8419;SDS011;4247;48.550;8.822;2024-02-23T14:32:47;5.77;;;0.60;;
8419;SDS011;4247;48.550;8.822;2024-02-23T14:35:14;6.33;;;0.70;;
8419;SDS011;4247;48.550;8.822;2024-02-23T14:37:41;3.13;;;0.40;;
8419;SDS011;4247;48.550;8.822;2024-02-23T14:40:08;4.37;;;0.50;;
8419;SDS011;4247;48.550;8.822;2024-02-23T14:42:36;8.33;;;0.80;;
8419;SDS011;4247;48.550;8.822;2024-02-23T14:45:06;4.50;;;0.50;;
8419;SDS011;4247;48.550;8.822;2024-02-23T14:47:34;3.53;;;0.50;;
8419;SDS011;4247;48.550;8.822;2024-02-23T14:50:01;3.57;;;0.40;;
8419;SDS011;4247;48.550;8.822;2024-02-23T14:52:28;3.33;;;0.60;;
8419;SDS011;4247;48.550;8.822;2024-02-23T14:54:55;3.13;;;0.37;;
8419;SDS011;4247;48.550;8.822;2024-02-23T14:57:22;5.63;;;0.83;;
8419;SDS011;4247;48.550;8.822;2024-02-23T14:59:49;1.97;;;0.37;;
8419;SDS011;4247;48.550;8.822;2024-02-23T15:02:19;2.83;;;0.40;;
8419;SDS011;4247;48.550;8.822;2024-02-23T16:22:47;2.20;;;1.03;;
8419;SDS011;4247;48.550;8.822;2024-02-23T16:25:16;1.30;;;1.20;;
8419;SDS011;4247;48.550;8.822;2024-02-23T16:27:42;2.47;;;1.57;;
8419;SDS011;4247;48.550;8.822;2024-02-23T16:30:11;3.07;;;1.27;;
8419;SDS011;4247;48.550;8.822;2024-02-23T16:32:37;7.83;;;0.93;;
8419;SDS011;4247;48.550;8.822;2024-02-23T16:35:04;4.17;;;0.87;;